메인 페이지
METAR-TAF:

METAR-TAF

공항 :

털사, 오클라호마, 미국

위도: 36-11-51N, 경도: 095-53-11W, 고도: 206m

현재 날씨관측

예보는 56분 전, 04:53시(UTC)에 발표되었습니다.
5kt
온도 20°C
습도 94%
기압 1010 hPa
시정: 16.1km
고도 25000ft 상공 구름 조금

METAR: KTUL 250453Z 17005KT 10SM FEW250 20/19 A2982 RMK AO2 SLP093 T02000194

시각: 00:49 (05:49 UTC)

예보

예보는 25분 전, 05:24시(UTC)에 발표되었습니다.
예보 대상 시간: 25일 06시부터 26일 06시까지 (UTC)
여러 방향의 바람 3kt
시정: 10km
고도 25000ft 상공 구름 보통
25일 0800시부터 (UTC)
남남동5kt
시정: 10km
고도 4000ft 상공 구름 많음, 적란운.
시계 내 뇌우
일시적
25일 08시부터 25일 12시까지 (UTC)
여러 방향의 바람 20kt, 순간 최대 풍속 30kt
시정: 3.2km
고도 1500ft 상공 구름 많음, 적란운.
뇌우, 비
25일 1200시부터 (UTC)
남남서12kt, 순간 최대 풍속 18kt
시정: 10km
고도 5000ft 상공 구름 많음
26일 0000시부터 (UTC)
7kt
시정: 10km
고도 5000ft 상공 구름 보통
고도 12000ft 상공 구름 많음

TAF: KTUL 250524Z 2506/2606 VRB03KT P6SM SCT250 FM250800 15005KT P6SM VCTS BKN040CB TEMPO 2508/2512 VRB20G30KT 2SM TSRA BKN015CB FM251200 20012G18KT P6SM BKN050 FM260000 18007KT P6SM SCT050 BKN120

4,000개 이상의 공항 관측 자료 및 예보 (METAR 및 TAF 보고).

지도상에서 검색 가능한 기상관측소가 노란 점과 빨간 점으로 표시되어 있습니다.

기상관측소 명을 보려면 표시 위로 마우스를 이동하세요.

날씨 관측과 예보를 보려면 클릭하세요.

지도 변경 : 확대하려면 엑스 표시가 있는 녹색 버튼, 축소하려면 빼기 표시가 있는 녹색 버튼, 다음 페이지의 지도를 보려면 녹색 화살표를 클릭하세요.


METAR-TAF: